This is the latest recevied weather packets stored in our database for station/object IS0QLX-3. If no packets are shown the sender has not sent any weather packets the latest 10 day(s).
| Time | Temp. | Humidity | Pressure | Rain* | Wind** | Luminosity | Snow |
|---|---|---|---|---|---|---|---|
| 1788110012 | 100° F | 33% | 761.2 mmHg | - | - | - | - |
| 1788108807 | 103° F | 32% | 761.2 mmHg | - | - | - | - |
| 1788107602 | 106° F | 31% | 761.1 mmHg | - | - | - | - |
| 1788106399 | 110° F | 29% | 761.2 mmHg | - | - | - | - |
| 1788105194 | 114° F | 28% | 761.2 mmHg | - | - | - | - |
| 1788103989 | 117° F | 27% | 761.2 mmHg | - | - | - | - |
| 1788102784 | 119° F | 26% | 761.2 mmHg | - | - | - | - |
| 1788101579 | 120° F | 25% | 761.2 mmHg | - | - | - | - |
| 1788100376 | 118° F | 25% | 761.3 mmHg | - | - | - | - |
| 1788097967 | 107° F | 30% | 761.5 mmHg | - | - | - | - |
| 1788096763 | 105° F | 32% | 761.6 mmHg | - | - | - | - |
| 1788095560 | 104° F | 33% | 761.6 mmHg | - | - | - | - |
| 1788094355 | 103° F | 33% | 761.8 mmHg | - | - | - | - |
| 1788093152 | 102° F | 34% | 761.9 mmHg | - | - | - | - |
| 1788091948 | 102° F | 35% | 762 mmHg | - | - | - | - |
| 1788088335 | 100° F | 36% | 762.3 mmHg | - | - | - | - |
| 1788084723 | 102° F | 35% | 762.7 mmHg | - | - | - | - |
| 1788079906 | 96° F | 38% | 762.8 mmHg | - | - | - | - |
| 1788077498 | 93° F | 40% | 762.7 mmHg | - | - | - | - |
| 1788075071 | 90° F | 42% | 762.4 mmHg | - | - | - | - |
| 1788073872 | 88° F | 43% | 762.4 mmHg | - | - | - | - |
| 1788072664 | 86° F | 43% | 762.4 mmHg | - | - | - | - |
| 1788033190 | 90° F | 43% | 761.5 mmHg | - | - | - | - |
| 1788031986 | 90° F | 42% | 761.3 mmHg | - | - | - | - |
| 1788028373 | 92° F | 42% | 761 mmHg | - | - | - | - |
* Rain since midnight (hover to see other rain measurements)
** Current wind speed in m/s (hover to see current wind gust speed)